sensor_id;sensor_type;location;lat;lon;timestamp;temperature;humidity
17703;DHT22;8970;48.104;-1.680;2022-08-01T00:01:00;22.10;99.90
17703;DHT22;8970;48.104;-1.680;2022-08-01T00:01:37;22.10;99.90
17703;DHT22;8970;48.104;-1.680;2022-08-01T00:02:13;22.10;99.90
17703;DHT22;8970;48.104;-1.680;2022-08-01T00:02:50;22.20;99.90
17703;DHT22;8970;48.104;-1.680;2022-08-01T00:03:27;22.20;99.90
17703;DHT22;8970;48.104;-1.680;2022-08-01T00:04:04;22.30;99.90
17703;DHT22;8970;48.104;-1.680;2022-08-01T00:04:41;22.30;99.90
17703;DHT22;8970;48.104;-1.680;2022-08-01T00:05:17;22.30;99.90
17703;DHT22;8970;48.104;-1.680;2022-08-01T00:05:54;22.40;99.90
17703;DHT22;8970;48.104;-1.680;2022-08-01T00:06:31;22.40;99.90
17703;DHT22;8970;48.104;-1.680;2022-08-01T00:07:11;22.40;99.90
17703;DHT22;8970;48.104;-1.680;2022-08-01T00:07:47;22.40;99.90
17703;DHT22;8970;48.104;-1.680;2022-08-01T00:08:24;22.40;99.90
17703;DHT22;8970;48.104;-1.680;2022-08-01T00:09:01;22.40;99.90
17703;DHT22;8970;48.104;-1.680;2022-08-01T00:10:22;22.30;99.90
17703;DHT22;8970;48.104;-1.680;2022-08-01T00:10:59;22.20;99.90
17703;DHT22;8970;48.104;-1.680;2022-08-01T00:11:36;22.20;99.90
17703;DHT22;8970;48.104;-1.680;2022-08-01T00:12:12;22.20;99.90
17703;DHT22;8970;48.104;-1.680;2022-08-01T00:12:49;22.10;99.90
17703;DHT22;8970;48.104;-1.680;2022-08-01T00:14:10;22.10;99.90
17703;DHT22;8970;48.104;-1.680;2022-08-01T00:14:47;22.10;99.90
17703;DHT22;8970;48.104;-1.680;2022-08-01T00:15:24;22.10;99.90
17703;DHT22;8970;48.104;-1.680;2022-08-01T00:16:01;22.10;99.90
17703;DHT22;8970;48.104;-1.680;2022-08-01T00:16:38;22.10;99.90
17703;DHT22;8970;48.104;-1.680;2022-08-01T00:17:14;22.20;99.90
17703;DHT22;8970;48.104;-1.680;2022-08-01T00:17:51;22.20;99.90
17703;DHT22;8970;48.104;-1.680;2022-08-01T00:18:28;22.20;99.90
17703;DHT22;8970;48.104;-1.680;2022-08-01T00:19:06;22.10;99.90
17703;DHT22;8970;48.104;-1.680;2022-08-01T00:19:43;22.10;99.90
17703;DHT22;8970;48.104;-1.680;2022-08-01T00:20:19;22.00;99.90
17703;DHT22;8970;48.104;-1.680;2022-08-01T00:20:56;22.00;99.90
17703;DHT22;8970;48.104;-1.680;2022-08-01T00:21:33;22.00;99.90
17703;DHT22;8970;48.104;-1.680;2022-08-01T00:22:09;22.00;99.90
17703;DHT22;8970;48.104;-1.680;2022-08-01T00:22:46;21.90;99.90
17703;DHT22;8970;48.104;-1.680;2022-08-01T00:23:24;21.80;99.90
17703;DHT22;8970;48.104;-1.680;2022-08-01T00:24:00;21.80;99.90
17703;DHT22;8970;48.104;-1.680;2022-08-01T00:24:38;21.80;99.90
17703;DHT22;8970;48.104;-1.680;2022-08-01T00:25:58;21.70;99.90
17703;DHT22;8970;48.104;-1.680;2022-08-01T00:26:35;21.70;99.90
17703;DHT22;8970;48.104;-1.680;2022-08-01T00:27:11;21.70;99.90
17703;DHT22;8970;48.104;-1.680;2022-08-01T00:27:48;21.80;99.90
17703;DHT22;8970;48.104;-1.680;2022-08-01T00:28:28;21.80;99.90
17703;DHT22;8970;48.104;-1.680;2022-08-01T00:29:46;21.80;99.90
17703;DHT22;8970;48.104;-1.680;2022-08-01T00:30:22;21.80;99.90
17703;DHT22;8970;48.104;-1.680;2022-08-01T00:30:59;21.80;99.90
17703;DHT22;8970;48.104;-1.680;2022-08-01T00:31:36;21.90;99.90
17703;DHT22;8970;48.104;-1.680;2022-08-01T00:32:12;21.90;99.90
17703;DHT22;8970;48.104;-1.680;2022-08-01T00:32:49;21.90;99.90
17703;DHT22;8970;48.104;-1.680;2022-08-01T00:33:26;22.00;99.90
17703;DHT22;8970;48.104;-1.680;2022-08-01T00:34:04;22.00;99.90
17703;DHT22;8970;48.104;-1.680;2022-08-01T00:34:40;22.00;99.90
17703;DHT22;8970;48.104;-1.680;2022-08-01T00:35:17;22.00;99.90
17703;DHT22;8970;48.104;-1.680;2022-08-01T00:35:54;22.10;99.90
17703;DHT22;8970;48.104;-1.680;2022-08-01T00:36:30;22.10;99.90
17703;DHT22;8970;48.104;-1.680;2022-08-01T00:37:07;22.10;99.90
17703;DHT22;8970;48.104;-1.680;2022-08-01T00:37:44;22.10;99.90
17703;DHT22;8970;48.104;-1.680;2022-08-01T00:38:20;22.20;99.90
17703;DHT22;8970;48.104;-1.680;2022-08-01T00:38:58;22.20;99.90
17703;DHT22;8970;48.104;-1.680;2022-08-01T00:39:35;22.20;99.90
17703;DHT22;8970;48.104;-1.680;2022-08-01T00:40:11;22.20;99.90
17703;DHT22;8970;48.104;-1.680;2022-08-01T00:40:49;22.30;99.90
17703;DHT22;8970;48.104;-1.680;2022-08-01T00:41:25;22.30;99.90
17703;DHT22;8970;48.104;-1.680;2022-08-01T00:42:06;22.30;99.90
17703;DHT22;8970;48.104;-1.680;2022-08-01T00:42:43;22.30;99.90
17703;DHT22;8970;48.104;-1.680;2022-08-01T00:43:19;22.30;99.90
17703;DHT22;8970;48.104;-1.680;2022-08-01T00:43:56;22.20;99.90
17703;DHT22;8970;48.104;-1.680;2022-08-01T00:44:33;22.30;99.90
17703;DHT22;8970;48.104;-1.680;2022-08-01T00:45:10;22.30;99.90
17703;DHT22;8970;48.104;-1.680;2022-08-01T00:45:47;22.30;99.90
17703;DHT22;8970;48.104;-1.680;2022-08-01T00:47:08;22.30;99.90
17703;DHT22;8970;48.104;-1.680;2022-08-01T00:47:45;22.30;99.90
17703;DHT22;8970;48.104;-1.680;2022-08-01T00:48:22;22.30;99.90
17703;DHT22;8970;48.104;-1.680;2022-08-01T00:48:59;22.30;99.90
17703;DHT22;8970;48.104;-1.680;2022-08-01T00:49:36;22.40;99.90
17703;DHT22;8970;48.104;-1.680;2022-08-01T00:50:13;22.30;99.90
17703;DHT22;8970;48.104;-1.680;2022-08-01T00:50:51;22.30;99.90
17703;DHT22;8970;48.104;-1.680;2022-08-01T00:51:28;22.30;99.90
17703;DHT22;8970;48.104;-1.680;2022-08-01T00:52:06;22.20;99.90
17703;DHT22;8970;48.104;-1.680;2022-08-01T00:53:29;22.20;99.90
17703;DHT22;8970;48.104;-1.680;2022-08-01T00:54:06;22.10;99.90
17703;DHT22;8970;48.104;-1.680;2022-08-01T00:54:43;22.10;99.90
17703;DHT22;8970;48.104;-1.680;2022-08-01T00:55:20;22.10;99.90
17703;DHT22;8970;48.104;-1.680;2022-08-01T00:55:57;22.10;99.90
17703;DHT22;8970;48.104;-1.680;2022-08-01T00:56:33;22.00;99.90
17703;DHT22;8970;48.104;-1.680;2022-08-01T00:57:10;22.00;99.90
17703;DHT22;8970;48.104;-1.680;2022-08-01T00:57:48;22.00;99.90
17703;DHT22;8970;48.104;-1.680;2022-08-01T00:58:25;22.10;99.90
17703;DHT22;8970;48.104;-1.680;2022-08-01T00:59:04;22.10;99.90
17703;DHT22;8970;48.104;-1.680;2022-08-01T01:00:27;22.10;99.90
17703;DHT22;8970;48.104;-1.680;2022-08-01T01:01:04;22.10;99.90
17703;DHT22;8970;48.104;-1.680;2022-08-01T01:01:41;22.00;99.90
17703;DHT22;8970;48.104;-1.680;2022-08-01T01:02:19;22.00;99.90
17703;DHT22;8970;48.104;-1.680;2022-08-01T01:02:56;21.90;99.90
17703;DHT22;8970;48.104;-1.680;2022-08-01T01:03:32;21.90;99.90
17703;DHT22;8970;48.104;-1.680;2022-08-01T01:04:09;21.90;99.90
17703;DHT22;8970;48.104;-1.680;2022-08-01T01:04:46;21.90;99.90
17703;DHT22;8970;48.104;-1.680;2022-08-01T01:05:22;21.90;99.90
17703;DHT22;8970;48.104;-1.680;2022-08-01T01:06:11;21.80;99.90
17703;DHT22;8970;48.104;-1.680;2022-08-01T01:07:34;21.70;99.90
17703;DHT22;8970;48.104;-1.680;2022-08-01T01:08:16;21.70;99.90
17703;DHT22;8970;48.104;-1.680;2022-08-01T01:08:58;21.70;99.90
17703;DHT22;8970;48.104;-1.680;2022-08-01T01:09:38;21.70;99.90
17703;DHT22;8970;48.104;-1.680;2022-08-01T01:10:17;21.70;99.90
17703;DHT22;8970;48.104;-1.680;2022-08-01T01:11:44;21.60;99.90
17703;DHT22;8970;48.104;-1.680;2022-08-01T01:12:27;21.50;99.90
17703;DHT22;8970;48.104;-1.680;2022-08-01T01:13:09;21.50;99.90
17703;DHT22;8970;48.104;-1.680;2022-08-01T01:14:32;21.40;99.90
17703;DHT22;8970;48.104;-1.680;2022-08-01T01:15:10;21.40;99.90
17703;DHT22;8970;48.104;-1.680;2022-08-01T01:15:51;21.40;99.90
17703;DHT22;8970;48.104;-1.680;2022-08-01T01:17:13;21.50;99.90
17703;DHT22;8970;48.104;-1.680;2022-08-01T01:17:55;21.50;99.90
17703;DHT22;8970;48.104;-1.680;2022-08-01T01:19:22;21.50;99.90
17703;DHT22;8970;48.104;-1.680;2022-08-01T01:20:00;21.50;99.90
17703;DHT22;8970;48.104;-1.680;2022-08-01T01:20:41;21.40;99.90
17703;DHT22;8970;48.104;-1.680;2022-08-01T01:22:38;21.30;99.90
17703;DHT22;8970;48.104;-1.680;2022-08-01T01:23:27;21.30;99.90
17703;DHT22;8970;48.104;-1.680;2022-08-01T01:24:08;21.30;99.90
17703;DHT22;8970;48.104;-1.680;2022-08-01T01:24:48;21.20;99.90
17703;DHT22;8970;48.104;-1.680;2022-08-01T01:26:40;21.20;99.90
17703;DHT22;8970;48.104;-1.680;2022-08-01T01:27:21;21.20;99.90
17703;DHT22;8970;48.104;-1.680;2022-08-01T01:29:03;21.20;99.90
17703;DHT22;8970;48.104;-1.680;2022-08-01T01:29:42;21.20;99.90
17703;DHT22;8970;48.104;-1.680;2022-08-01T01:30:20;21.20;99.90
17703;DHT22;8970;48.104;-1.680;2022-08-01T01:30:58;21.30;99.90
17703;DHT22;8970;48.104;-1.680;2022-08-01T01:31:42;21.30;99.90
17703;DHT22;8970;48.104;-1.680;2022-08-01T01:32:22;21.30;99.90
17703;DHT22;8970;48.104;-1.680;2022-08-01T01:33:01;21.40;99.90
17703;DHT22;8970;48.104;-1.680;2022-08-01T01:33:40;21.40;99.90
17703;DHT22;8970;48.104;-1.680;2022-08-01T01:34:19;21.50;99.90
17703;DHT22;8970;48.104;-1.680;2022-08-01T01:34:57;21.60;99.90
17703;DHT22;8970;48.104;-1.680;2022-08-01T01:35:37;21.60;99.90
17703;DHT22;8970;48.104;-1.680;2022-08-01T01:36:59;21.60;99.90
17703;DHT22;8970;48.104;-1.680;2022-08-01T01:37:39;21.60;99.90
17703;DHT22;8970;48.104;-1.680;2022-08-01T01:38:18;21.60;99.90
17703;DHT22;8970;48.104;-1.680;2022-08-01T01:38:56;21.60;99.90
17703;DHT22;8970;48.104;-1.680;2022-08-01T01:39:33;21.70;99.90
17703;DHT22;8970;48.104;-1.680;2022-08-01T01:40:13;21.70;99.90
17703;DHT22;8970;48.104;-1.680;2022-08-01T01:40:51;21.70;99.90
17703;DHT22;8970;48.104;-1.680;2022-08-01T01:41:29;21.70;99.90
17703;DHT22;8970;48.104;-1.680;2022-08-01T01:42:07;21.70;99.90
17703;DHT22;8970;48.104;-1.680;2022-08-01T01:42:45;21.70;99.90
17703;DHT22;8970;48.104;-1.680;2022-08-01T01:43:23;21.70;99.90
17703;DHT22;8970;48.104;-1.680;2022-08-01T01:44:01;21.80;99.90
17703;DHT22;8970;48.104;-1.680;2022-08-01T01:44:38;21.80;99.90
17703;DHT22;8970;48.104;-1.680;2022-08-01T01:45:16;21.80;99.90
17703;DHT22;8970;48.104;-1.680;2022-08-01T01:45:54;21.80;99.90
17703;DHT22;8970;48.104;-1.680;2022-08-01T01:47:13;21.80;99.90
17703;DHT22;8970;48.104;-1.680;2022-08-01T01:47:51;21.80;99.90
17703;DHT22;8970;48.104;-1.680;2022-08-01T01:48:29;21.70;99.90
17703;DHT22;8970;48.104;-1.680;2022-08-01T01:49:09;21.70;99.90
17703;DHT22;8970;48.104;-1.680;2022-08-01T01:49:48;21.70;99.90
17703;DHT22;8970;48.104;-1.680;2022-08-01T01:50:28;21.70;99.90
17703;DHT22;8970;48.104;-1.680;2022-08-01T01:51:06;21.70;99.90
17703;DHT22;8970;48.104;-1.680;2022-08-01T01:51:43;21.70;99.90
17703;DHT22;8970;48.104;-1.680;2022-08-01T01:52:21;21.70;99.90
17703;DHT22;8970;48.104;-1.680;2022-08-01T01:53:46;21.60;99.90
17703;DHT22;8970;48.104;-1.680;2022-08-01T01:54:28;21.50;99.90
17703;DHT22;8970;48.104;-1.680;2022-08-01T01:55:06;21.50;99.90
17703;DHT22;8970;48.104;-1.680;2022-08-01T01:55:46;21.60;99.90
17703;DHT22;8970;48.104;-1.680;2022-08-01T01:56:24;21.60;99.90
17703;DHT22;8970;48.104;-1.680;2022-08-01T01:57:03;21.60;99.90
17703;DHT22;8970;48.104;-1.680;2022-08-01T01:57:42;21.60;99.90
17703;DHT22;8970;48.104;-1.680;2022-08-01T01:58:20;21.60;99.90
17703;DHT22;8970;48.104;-1.680;2022-08-01T01:59:00;21.50;99.90
17703;DHT22;8970;48.104;-1.680;2022-08-01T01:59:39;21.50;99.90
17703;DHT22;8970;48.104;-1.680;2022-08-01T02:00:17;21.50;99.90
17703;DHT22;8970;48.104;-1.680;2022-08-01T02:01:41;21.50;99.90
17703;DHT22;8970;48.104;-1.680;2022-08-01T02:02:18;21.50;99.90
17703;DHT22;8970;48.104;-1.680;2022-08-01T02:02:56;21.50;99.90
17703;DHT22;8970;48.104;-1.680;2022-08-01T02:04:21;21.50;99.90
17703;DHT22;8970;48.104;-1.680;2022-08-01T02:04:59;21.50;99.90
17703;DHT22;8970;48.104;-1.680;2022-08-01T02:05:36;21.40;99.90
17703;DHT22;8970;48.104;-1.680;2022-08-01T02:06:15;21.40;99.90
17703;DHT22;8970;48.104;-1.680;2022-08-01T02:06:52;21.40;99.90
17703;DHT22;8970;48.104;-1.680;2022-08-01T02:07:30;21.40;99.90
17703;DHT22;8970;48.104;-1.680;2022-08-01T02:08:08;21.40;99.90
17703;DHT22;8970;48.104;-1.680;2022-08-01T02:08:46;21.30;99.90
17703;DHT22;8970;48.104;-1.680;2022-08-01T02:09:24;21.30;99.90
17703;DHT22;8970;48.104;-1.680;2022-08-01T02:10:03;21.30;99.90
17703;DHT22;8970;48.104;-1.680;2022-08-01T02:10:41;21.40;99.90
17703;DHT22;8970;48.104;-1.680;2022-08-01T02:11:21;21.40;99.90
17703;DHT22;8970;48.104;-1.680;2022-08-01T02:11:59;21.30;99.90
17703;DHT22;8970;48.104;-1.680;2022-08-01T02:12:38;21.30;99.90
17703;DHT22;8970;48.104;-1.680;2022-08-01T02:13:17;21.20;99.90
17703;DHT22;8970;48.104;-1.680;2022-08-01T02:13:57;21.20;99.90
17703;DHT22;8970;48.104;-1.680;2022-08-01T02:14:38;21.20;99.90
17703;DHT22;8970;48.104;-1.680;2022-08-01T02:15:16;21.20;99.90
17703;DHT22;8970;48.104;-1.680;2022-08-01T02:15:54;21.20;99.90
17703;DHT22;8970;48.104;-1.680;2022-08-01T02:17:18;21.30;99.90
17703;DHT22;8970;48.104;-1.680;2022-08-01T02:17:57;21.30;99.90
17703;DHT22;8970;48.104;-1.680;2022-08-01T02:19:19;21.30;99.90
17703;DHT22;8970;48.104;-1.680;2022-08-01T02:19:56;21.40;99.90
17703;DHT22;8970;48.104;-1.680;2022-08-01T02:21:22;21.40;99.90
17703;DHT22;8970;48.104;-1.680;2022-08-01T02:22:46;21.40;99.90
17703;DHT22;8970;48.104;-1.680;2022-08-01T02:23:24;21.40;99.90
17703;DHT22;8970;48.104;-1.680;2022-08-01T02:24:49;21.50;99.90
17703;DHT22;8970;48.104;-1.680;2022-08-01T02:25:29;21.50;99.90
17703;DHT22;8970;48.104;-1.680;2022-08-01T02:26:08;21.50;99.90
17703;DHT22;8970;48.104;-1.680;2022-08-01T02:26:51;21.50;99.90
17703;DHT22;8970;48.104;-1.680;2022-08-01T02:28:29;21.50;99.90
17703;DHT22;8970;48.104;-1.680;2022-08-01T02:29:10;21.50;99.90
17703;DHT22;8970;48.104;-1.680;2022-08-01T02:29:49;21.60;99.90
17703;DHT22;8970;48.104;-1.680;2022-08-01T02:30:26;21.50;99.90
17703;DHT22;8970;48.104;-1.680;2022-08-01T02:31:07;21.50;99.90
17703;DHT22;8970;48.104;-1.680;2022-08-01T02:31:48;21.50;99.90
17703;DHT22;8970;48.104;-1.680;2022-08-01T02:32:30;21.50;99.90
17703;DHT22;8970;48.104;-1.680;2022-08-01T02:33:53;21.50;99.90
17703;DHT22;8970;48.104;-1.680;2022-08-01T02:34:30;21.40;99.90
17703;DHT22;8970;48.104;-1.680;2022-08-01T02:35:11;21.40;99.90
17703;DHT22;8970;48.104;-1.680;2022-08-01T02:35:50;21.50;99.90
17703;DHT22;8970;48.104;-1.680;2022-08-01T02:36:29;21.50;99.90
17703;DHT22;8970;48.104;-1.680;2022-08-01T02:37:06;21.50;99.90
17703;DHT22;8970;48.104;-1.680;2022-08-01T02:37:44;21.60;99.90
17703;DHT22;8970;48.104;-1.680;2022-08-01T02:39:11;21.60;99.90
17703;DHT22;8970;48.104;-1.680;2022-08-01T02:39:50;21.60;99.90
17703;DHT22;8970;48.104;-1.680;2022-08-01T02:40:30;21.60;99.90
17703;DHT22;8970;48.104;-1.680;2022-08-01T02:41:09;21.60;99.90
17703;DHT22;8970;48.104;-1.680;2022-08-01T02:41:49;21.60;99.90
17703;DHT22;8970;48.104;-1.680;2022-08-01T02:42:28;21.50;99.90
17703;DHT22;8970;48.104;-1.680;2022-08-01T02:43:06;21.50;99.90
17703;DHT22;8970;48.104;-1.680;2022-08-01T02:44:34;21.40;99.90
17703;DHT22;8970;48.104;-1.680;2022-08-01T02:45:13;21.30;99.90
17703;DHT22;8970;48.104;-1.680;2022-08-01T02:46:36;21.30;99.90
17703;DHT22;8970;48.104;-1.680;2022-08-01T02:48:01;21.30;99.90
17703;DHT22;8970;48.104;-1.680;2022-08-01T02:48:39;21.30;99.90
17703;DHT22;8970;48.104;-1.680;2022-08-01T02:49:19;21.30;99.90
17703;DHT22;8970;48.104;-1.680;2022-08-01T02:50:42;21.30;99.90
17703;DHT22;8970;48.104;-1.680;2022-08-01T02:51:20;21.30;99.90
17703;DHT22;8970;48.104;-1.680;2022-08-01T02:51:59;21.30;99.90
17703;DHT22;8970;48.104;-1.680;2022-08-01T02:52:38;21.30;99.90
17703;DHT22;8970;48.104;-1.680;2022-08-01T02:53:18;21.30;99.90
17703;DHT22;8970;48.104;-1.680;2022-08-01T02:54:37;21.30;99.90
17703;DHT22;8970;48.104;-1.680;2022-08-01T02:55:14;21.30;99.90
17703;DHT22;8970;48.104;-1.680;2022-08-01T02:55:53;21.30;99.90
17703;DHT22;8970;48.104;-1.680;2022-08-01T02:56:32;21.20;99.90
17703;DHT22;8970;48.104;-1.680;2022-08-01T02:57:13;21.20;99.90
17703;DHT22;8970;48.104;-1.680;2022-08-01T02:57:50;21.20;99.90
17703;DHT22;8970;48.104;-1.680;2022-08-01T02:58:29;21.20;99.90
17703;DHT22;8970;48.104;-1.680;2022-08-01T02:59:09;21.10;99.90
17703;DHT22;8970;48.104;-1.680;2022-08-01T02:59:48;21.10;99.90
17703;DHT22;8970;48.104;-1.680;2022-08-01T03:00:26;21.10;99.90
17703;DHT22;8970;48.104;-1.680;2022-08-01T03:01:04;21.10;99.90
17703;DHT22;8970;48.104;-1.680;2022-08-01T03:01:44;21.10;99.90
17703;DHT22;8970;48.104;-1.680;2022-08-01T03:02:21;21.10;99.90
17703;DHT22;8970;48.104;-1.680;2022-08-01T03:03:42;21.10;99.90
17703;DHT22;8970;48.104;-1.680;2022-08-01T03:04:20;21.10;99.90
17703;DHT22;8970;48.104;-1.680;2022-08-01T03:04:58;21.10;99.90
17703;DHT22;8970;48.104;-1.680;2022-08-01T03:05:37;21.10;99.90
17703;DHT22;8970;48.104;-1.680;2022-08-01T03:06:17;21.20;99.90
17703;DHT22;8970;48.104;-1.680;2022-08-01T03:06:55;21.20;99.90
17703;DHT22;8970;48.104;-1.680;2022-08-01T03:07:33;21.20;99.90
17703;DHT22;8970;48.104;-1.680;2022-08-01T03:08:12;21.30;99.90
17703;DHT22;8970;48.104;-1.680;2022-08-01T03:08:50;21.30;99.90
17703;DHT22;8970;48.104;-1.680;2022-08-01T03:09:28;21.30;99.90
17703;DHT22;8970;48.104;-1.680;2022-08-01T03:10:07;21.20;99.90
17703;DHT22;8970;48.104;-1.680;2022-08-01T03:10:46;21.20;99.90
17703;DHT22;8970;48.104;-1.680;2022-08-01T03:11:25;21.20;99.90
17703;DHT22;8970;48.104;-1.680;2022-08-01T03:12:49;21.20;99.90
17703;DHT22;8970;48.104;-1.680;2022-08-01T03:13:28;21.20;99.90
17703;DHT22;8970;48.104;-1.680;2022-08-01T03:14:51;21.10;99.90
17703;DHT22;8970;48.104;-1.680;2022-08-01T03:15:32;21.10;99.90
17703;DHT22;8970;48.104;-1.680;2022-08-01T03:16:12;21.00;99.90
17703;DHT22;8970;48.104;-1.680;2022-08-01T03:16:50;21.00;99.90
17703;DHT22;8970;48.104;-1.680;2022-08-01T03:18:12;21.00;99.90
17703;DHT22;8970;48.104;-1.680;2022-08-01T03:18:52;20.90;99.90
17703;DHT22;8970;48.104;-1.680;2022-08-01T03:19:31;21.00;99.90
17703;DHT22;8970;48.104;-1.680;2022-08-01T03:20:10;21.00;99.90
17703;DHT22;8970;48.104;-1.680;2022-08-01T03:20:48;20.90;99.90
17703;DHT22;8970;48.104;-1.680;2022-08-01T03:21:27;20.90;99.90
17703;DHT22;8970;48.104;-1.680;2022-08-01T03:22:49;20.80;99.90
17703;DHT22;8970;48.104;-1.680;2022-08-01T03:23:28;20.80;99.90
17703;DHT22;8970;48.104;-1.680;2022-08-01T03:24:08;20.80;99.90
17703;DHT22;8970;48.104;-1.680;2022-08-01T03:25:37;20.90;99.90
17703;DHT22;8970;48.104;-1.680;2022-08-01T03:26:15;20.90;99.90
17703;DHT22;8970;48.104;-1.680;2022-08-01T03:26:52;20.90;99.90
17703;DHT22;8970;48.104;-1.680;2022-08-01T03:27:30;20.90;99.90
17703;DHT22;8970;48.104;-1.680;2022-08-01T03:28:08;20.90;99.90
17703;DHT22;8970;48.104;-1.680;2022-08-01T03:28:47;20.90;99.90
17703;DHT22;8970;48.104;-1.680;2022-08-01T03:29:26;20.90;99.90
17703;DHT22;8970;48.104;-1.680;2022-08-01T03:30:07;20.90;99.90
17703;DHT22;8970;48.104;-1.680;2022-08-01T03:30:46;21.00;99.90
17703;DHT22;8970;48.104;-1.680;2022-08-01T03:31:25;21.00;99.90
17703;DHT22;8970;48.104;-1.680;2022-08-01T03:32:03;21.00;99.90
17703;DHT22;8970;48.104;-1.680;2022-08-01T03:32:41;21.00;99.90
17703;DHT22;8970;48.104;-1.680;2022-08-01T03:33:17;21.00;99.90
17703;DHT22;8970;48.104;-1.680;2022-08-01T03:33:55;21.00;99.90
17703;DHT22;8970;48.104;-1.680;2022-08-01T03:34:33;21.00;99.90
17703;DHT22;8970;48.104;-1.680;2022-08-01T03:35:10;21.00;99.90
17703;DHT22;8970;48.104;-1.680;2022-08-01T03:35:49;20.90;99.90
17703;DHT22;8970;48.104;-1.680;2022-08-01T03:36:29;20.90;99.90
17703;DHT22;8970;48.104;-1.680;2022-08-01T03:37:55;20.90;99.90
17703;DHT22;8970;48.104;-1.680;2022-08-01T03:38:34;20.90;99.90
17703;DHT22;8970;48.104;-1.680;2022-08-01T03:39:13;20.90;99.90
17703;DHT22;8970;48.104;-1.680;2022-08-01T03:40:38;20.90;99.90
17703;DHT22;8970;48.104;-1.680;2022-08-01T03:41:18;20.90;99.90
17703;DHT22;8970;48.104;-1.680;2022-08-01T03:41:59;20.90;99.90
17703;DHT22;8970;48.104;-1.680;2022-08-01T03:43:26;21.00;99.90
17703;DHT22;8970;48.104;-1.680;2022-08-01T03:44:07;21.00;99.90
17703;DHT22;8970;48.104;-1.680;2022-08-01T03:45:30;21.00;99.90
17703;DHT22;8970;48.104;-1.680;2022-08-01T03:46:13;21.00;99.90
17703;DHT22;8970;48.104;-1.680;2022-08-01T03:47:33;21.00;99.90
17703;DHT22;8970;48.104;-1.680;2022-08-01T03:48:13;21.00;99.90
17703;DHT22;8970;48.104;-1.680;2022-08-01T03:48:52;21.00;99.90
17703;DHT22;8970;48.104;-1.680;2022-08-01T03:50:15;20.90;99.90
17703;DHT22;8970;48.104;-1.680;2022-08-01T03:50:53;20.90;99.90
17703;DHT22;8970;48.104;-1.680;2022-08-01T03:51:31;20.90;99.90
17703;DHT22;8970;48.104;-1.680;2022-08-01T03:52:09;20.90;99.90
17703;DHT22;8970;48.104;-1.680;2022-08-01T03:52:47;20.90;99.90
17703;DHT22;8970;48.104;-1.680;2022-08-01T03:53:28;20.90;99.90
17703;DHT22;8970;48.104;-1.680;2022-08-01T03:54:06;20.90;99.90
17703;DHT22;8970;48.104;-1.680;2022-08-01T03:54:46;20.90;99.90
17703;DHT22;8970;48.104;-1.680;2022-08-01T03:55:23;20.90;99.90
17703;DHT22;8970;48.104;-1.680;2022-08-01T03:56:01;20.80;99.90
17703;DHT22;8970;48.104;-1.680;2022-08-01T03:56:39;20.80;99.90
17703;DHT22;8970;48.104;-1.680;2022-08-01T03:57:18;20.80;99.90
17703;DHT22;8970;48.104;-1.680;2022-08-01T03:57:56;20.80;99.90
17703;DHT22;8970;48.104;-1.680;2022-08-01T03:58:34;20.80;99.90
17703;DHT22;8970;48.104;-1.680;2022-08-01T03:59:11;20.80;99.90
17703;DHT22;8970;48.104;-1.680;2022-08-01T03:59:50;20.80;99.90
17703;DHT22;8970;48.104;-1.680;2022-08-01T04:01:12;20.80;99.90
17703;DHT22;8970;48.104;-1.680;2022-08-01T04:01:49;20.80;99.90
17703;DHT22;8970;48.104;-1.680;2022-08-01T04:02:27;20.80;99.90
17703;DHT22;8970;48.104;-1.680;2022-08-01T04:03:04;20.90;99.90
17703;DHT22;8970;48.104;-1.680;2022-08-01T04:03:42;20.90;99.90
17703;DHT22;8970;48.104;-1.680;2022-08-01T04:04:19;20.90;99.90
17703;DHT22;8970;48.104;-1.680;2022-08-01T04:04:56;20.90;99.90
17703;DHT22;8970;48.104;-1.680;2022-08-01T04:05:33;20.90;99.90
17703;DHT22;8970;48.104;-1.680;2022-08-01T04:06:11;20.90;99.90
17703;DHT22;8970;48.104;-1.680;2022-08-01T04:07:32;20.80;99.90
17703;DHT22;8970;48.104;-1.680;2022-08-01T04:08:11;20.80;99.90
17703;DHT22;8970;48.104;-1.680;2022-08-01T04:08:47;20.70;99.90
17703;DHT22;8970;48.104;-1.680;2022-08-01T04:09:31;20.70;99.90
17703;DHT22;8970;48.104;-1.680;2022-08-01T04:10:08;20.70;99.90
17703;DHT22;8970;48.104;-1.680;2022-08-01T04:11:30;20.70;99.90
17703;DHT22;8970;48.104;-1.680;2022-08-01T04:12:08;20.70;99.90
17703;DHT22;8970;48.104;-1.680;2022-08-01T04:12:45;20.70;99.90
17703;DHT22;8970;48.104;-1.680;2022-08-01T04:13:21;20.80;99.90
17703;DHT22;8970;48.104;-1.680;2022-08-01T04:14:45;20.80;99.90
17703;DHT22;8970;48.104;-1.680;2022-08-01T04:15:22;20.80;99.90
17703;DHT22;8970;48.104;-1.680;2022-08-01T04:15:59;20.70;99.90
17703;DHT22;8970;48.104;-1.680;2022-08-01T04:16:35;20.70;99.90
17703;DHT22;8970;48.104;-1.680;2022-08-01T04:17:13;20.70;99.90
17703;DHT22;8970;48.104;-1.680;2022-08-01T04:17:50;20.70;99.90
17703;DHT22;8970;48.104;-1.680;2022-08-01T04:18:29;20.70;99.90
17703;DHT22;8970;48.104;-1.680;2022-08-01T04:19:05;20.60;99.90
17703;DHT22;8970;48.104;-1.680;2022-08-01T04:19:43;20.60;99.90
17703;DHT22;8970;48.104;-1.680;2022-08-01T04:20:20;20.70;99.90
17703;DHT22;8970;48.104;-1.680;2022-08-01T04:20:57;20.70;99.90
17703;DHT22;8970;48.104;-1.680;2022-08-01T04:21:35;20.70;99.90
17703;DHT22;8970;48.104;-1.680;2022-08-01T04:22:13;20.70;99.90
17703;DHT22;8970;48.104;-1.680;2022-08-01T04:22:50;20.70;99.90
17703;DHT22;8970;48.104;-1.680;2022-08-01T04:23:28;20.70;99.90
17703;DHT22;8970;48.104;-1.680;2022-08-01T04:24:55;20.60;99.90
17703;DHT22;8970;48.104;-1.680;2022-08-01T04:25:34;20.70;99.90
17703;DHT22;8970;48.104;-1.680;2022-08-01T04:26:15;20.70;99.90
17703;DHT22;8970;48.104;-1.680;2022-08-01T04:26:53;20.70;99.90
17703;DHT22;8970;48.104;-1.680;2022-08-01T04:28:17;20.70;99.90
17703;DHT22;8970;48.104;-1.680;2022-08-01T04:28:56;20.70;99.90
17703;DHT22;8970;48.104;-1.680;2022-08-01T04:29:33;20.70;99.90
17703;DHT22;8970;48.104;-1.680;2022-08-01T04:30:13;20.70;99.90
17703;DHT22;8970;48.104;-1.680;2022-08-01T04:30:52;20.70;99.90
17703;DHT22;8970;48.104;-1.680;2022-08-01T04:31:30;20.70;99.90
17703;DHT22;8970;48.104;-1.680;2022-08-01T04:32:08;20.70;99.90
17703;DHT22;8970;48.104;-1.680;2022-08-01T04:32:47;20.70;99.90
17703;DHT22;8970;48.104;-1.680;2022-08-01T04:33:25;20.70;99.90
17703;DHT22;8970;48.104;-1.680;2022-08-01T04:34:04;20.80;99.90
17703;DHT22;8970;48.104;-1.680;2022-08-01T04:34:42;20.80;99.90
17703;DHT22;8970;48.104;-1.680;2022-08-01T04:35:21;20.80;99.90
17703;DHT22;8970;48.104;-1.680;2022-08-01T04:36:01;20.80;99.90
17703;DHT22;8970;48.104;-1.680;2022-08-01T04:36:39;20.90;99.90
17703;DHT22;8970;48.104;-1.680;2022-08-01T04:37:18;20.90;99.90
17703;DHT22;8970;48.104;-1.680;2022-08-01T04:37:55;20.90;99.90
17703;DHT22;8970;48.104;-1.680;2022-08-01T04:38:34;20.90;99.90
17703;DHT22;8970;48.104;-1.680;2022-08-01T04:39:13;20.90;99.90
17703;DHT22;8970;48.104;-1.680;2022-08-01T04:39:51;20.90;99.90
17703;DHT22;8970;48.104;-1.680;2022-08-01T04:40:29;21.00;99.90
17703;DHT22;8970;48.104;-1.680;2022-08-01T04:41:07;21.00;99.90
17703;DHT22;8970;48.104;-1.680;2022-08-01T04:41:46;21.00;99.90
17703;DHT22;8970;48.104;-1.680;2022-08-01T04:42:23;21.00;99.90